• Join FlightAware (Why Join?)
  • Login
  • US Flag 
03:18PM EST


 

Airport Tracker/Info


-or-


 

Live Flight TrackerFlight Track Log ✈ ABX2236 ✈ 16-Nov-2013 ✈ KMIA - SKBO / BOG

Flight Track Log - Related Links

Times and Time Zones

All times are in EST time to prevent confusion due to time zone crossing. See the ABX2236 flight status page for this flight to view local times or setup timezone preferences in your user account.

Time Position Orientation Groundspeed Altitude Reporting Facility
EST Latitude Longitude Course Direction KTS MPH feet Rate Location/Type
10:14PM 25.7833 -80.2808 113° Southeast 171 197 800  Level Miami Center
10:14PM 25.7736 -80.2553 113° Southeast 181 208 2,000 1,980 Climbing Miami Center
10:15PM 25.7375 -80.1919 122° Southeast 245 282 4,100 2,160 Climbing Miami Center
10:16PM 25.7044 -80.1728 152° Southeast 261 300 5,400 2,820 Climbing Miami Center
10:16PM 25.6692 -80.1625 165° South 269 310 7,000 2,760 Climbing Miami Center
10:17PM 25.6361 -80.1431 152° Southeast 269 310 8,200 3,000 Climbing Miami Center
10:17PM 25.5989 -80.1306 163° South 277 319 10,000 2,340 Climbing Miami Center
10:18PM 25.5658 -80.1089 149° Southeast 285 328 10,600 1,200 Climbing Miami Center
10:19PM 25.4769 -80.0675 157° South 332 382 11,900 1,620 Climbing Miami Center
10:20PM 25.3756 -80.0233 159° South 367 422 13,800 2,100 Climbing Miami Center
10:21PM 25.2636 -79.9769 159° South 404 465 16,200 2,160 Climbing Miami Center
10:22PM 25.1497 -79.9350 162° South 426 490 18,200 1,920 Climbing Miami Center
10:23PM 25.0294 -79.8883 161° South 447 514 20,000 1,740 Climbing Miami Center
10:24PM 24.9028 -79.8442 162° South 465 535 21,700 1,620 Climbing Miami Center
10:25PM 24.7742 -79.7997 163° South 477 549 23,300 1,500 Climbing Miami Center
10:26PM 24.6414 -79.7508 161° South 495 570 24,700 1,380 Climbing Miami Center
10:27PM 24.5044 -79.7019 162° South 501 577 26,200 1,680 Climbing Miami Center
10:28PM 24.3739 -79.6533 161° South 506 582 28,200 1,980 Climbing Miami Center
10:29PM 24.2389 -79.6094 163° South 506 582 30,100 1,740 Climbing Miami Center
10:30PM 24.1017 -79.5656 164° South 506 582 31,700 1,500 Climbing Miami Center
10:32PM 23.9203 -79.4877 162° South  Level FlightAware Approximate
10:39PM 23.0769 -79.1831 162° South  Level FlightAware Approximate
10:40PM 22.9563 -79.1399 162° South  Level FlightAware Approximate
10:41PM 22.8358 -79.0968 162° South  Level FlightAware Approximate
10:42PM 22.7152 -79.0537 162° South  Level FlightAware Approximate
10:43PM 22.5946 -79.0107 162° South  Level FlightAware Approximate
10:44PM 22.4740 -78.9678 162° South  Level FlightAware Approximate
10:45PM 22.3534 -78.9250 162° South  Level FlightAware Approximate
10:46PM 22.2328 -78.8823 162° South  Level FlightAware Approximate
10:47PM 22.1122 -78.8396 162° South  Level FlightAware Approximate
10:48PM 21.9913 -78.7978 167° South  Level FlightAware Approximate
10:49PM 21.8677 -78.7668 167° South  Level FlightAware Approximate
10:50PM 21.7441 -78.7358 167° South  Level FlightAware Approximate
10:51PM 21.6204 -78.7048 167° South  Level FlightAware Approximate
10:52PM 21.4968 -78.6739 167° South  Level FlightAware Approximate
10:53PM 21.3732 -78.6431 167° South  Level FlightAware Approximate
10:54PM 21.2495 -78.6123 167° South  Level FlightAware Approximate
10:55PM 21.1259 -78.5816 167° South  Level FlightAware Approximate
10:56PM 21.0022 -78.5509 167° South  Level FlightAware Approximate
10:57PM 20.8785 -78.5202 167° South  Level FlightAware Approximate
10:58PM 20.7549 -78.4897 167° South  Level FlightAware Approximate
10:59PM 20.6312 -78.4591 167° South  Level FlightAware Approximate
11:00PM 20.5075 -78.4286 167° South  Level FlightAware Approximate
11:01PM 20.3838 -78.3982 167° South  Level FlightAware Approximate
11:02PM 20.2601 -78.3678 167° South  Level FlightAware Approximate
11:03PM 20.1364 -78.3375 167° South  Level FlightAware Approximate
11:04PM 20.0127 -78.3072 167° South  Level FlightAware Approximate
11:05PM 19.8890 -78.2769 167° South  Level FlightAware Approximate
11:06PM 19.7653 -78.2468 167° South  Level FlightAware Approximate
11:07PM 19.6416 -78.2166 167° South  Level FlightAware Approximate
11:08PM 19.5179 -78.1865 167° South  Level FlightAware Approximate
11:09PM 19.3942 -78.1565 167° South  Level FlightAware Approximate
11:10PM 19.2704 -78.1264 167° South  Level FlightAware Approximate
11:11PM 19.1467 -78.0965 167° South  Level FlightAware Approximate
11:12PM 19.0229 -78.0666 167° South  Level FlightAware Approximate
11:13PM 18.8992 -78.0367 167° South  Level FlightAware Approximate
11:14PM 18.7754 -78.0069 167° South  Level FlightAware Approximate
11:15PM 18.6517 -77.9771 167° South  Level FlightAware Approximate
11:16PM 18.5279 -77.9473 167° South  Level FlightAware Approximate
11:17PM 18.4042 -77.9176 167° South  Level FlightAware Approximate
11:18PM 18.2804 -77.8880 167° South  Level FlightAware Approximate
11:19PM 18.1566 -77.8584 167° South  Level FlightAware Approximate
11:20PM 18.0328 -77.8288 167° South  Level FlightAware Approximate
11:21PM 17.9090 -77.7993 167° South  Level FlightAware Approximate
11:22PM 17.7853 -77.7698 167° South  Level FlightAware Approximate
11:23PM 17.6615 -77.7403 167° South  Level FlightAware Approximate
11:24PM 17.5377 -77.7109 167° South  Level FlightAware Approximate
11:25PM 17.4139 -77.6815 167° South  Level FlightAware Approximate
11:26PM 17.2901 -77.6522 167° South  Level FlightAware Approximate
11:27PM 17.1663 -77.6229 167° South  Level FlightAware Approximate
11:28PM 17.0424 -77.5937 167° South  Level FlightAware Approximate
11:29PM 16.9186 -77.5645 167° South  Level FlightAware Approximate
11:30PM 16.7948 -77.5353 167° South  Level FlightAware Approximate
11:31PM 16.6710 -77.5062 167° South  Level FlightAware Approximate
11:32PM 16.5471 -77.4771 167° South  Level FlightAware Approximate
11:33PM 16.4233 -77.4480 167° South  Level FlightAware Approximate
11:34PM 16.2995 -77.4190 167° South  Level FlightAware Approximate
11:35PM 16.1756 -77.3900 167° South  Level FlightAware Approximate
11:36PM 16.0518 -77.3611 167° South  Level FlightAware Approximate
11:37PM 15.9279 -77.3322 167° South  Level FlightAware Approximate
11:38PM 15.8041 -77.3033 167° South  Level FlightAware Approximate
11:39PM 15.6802 -77.2744 167° South  Level FlightAware Approximate
11:40PM 15.5563 -77.2456 167° South  Level FlightAware Approximate
11:41PM 15.4325 -77.2169 167° South  Level FlightAware Approximate
11:42PM 15.3086 -77.1881 167° South  Level FlightAware Approximate
11:43PM 15.1847 -77.1594 167° South  Level FlightAware Approximate
11:44PM 15.0609 -77.1307 167° South  Level FlightAware Approximate
11:45PM 14.9370 -77.1020 167° South  Level FlightAware Approximate
11:46PM 14.8132 -77.0732 167° South  Level FlightAware Approximate
11:47PM 14.6893 -77.0445 167° South  Level FlightAware Approximate
11:48PM 14.5654 -77.0158 167° South  Level FlightAware Approximate
11:49PM 14.4416 -76.9871 167° South  Level FlightAware Approximate
11:50PM 14.3177 -76.9585 167° South  Level FlightAware Approximate
11:51PM 14.1939 -76.9299 167° South  Level FlightAware Approximate
11:52PM 14.0700 -76.9013 167° South  Level FlightAware Approximate
11:53PM 13.9461 -76.8727 167° South  Level FlightAware Approximate
11:54PM 13.8223 -76.8442 167° South  Level FlightAware Approximate
11:55PM 13.6984 -76.8157 167° South  Level FlightAware Approximate
11:56PM 13.5745 -76.7873 167° South  Level FlightAware Approximate
11:57PM 13.4506 -76.7588 167° South  Level FlightAware Approximate
11:58PM 13.3267 -76.7304 167° South  Level FlightAware Approximate
11:59PM 13.2028 -76.7021 167° South  Level FlightAware Approximate
12:00AM 13.0789 -76.6738 167° South  Level FlightAware Approximate
12:01AM 12.9550 -76.6455 167° South  Level FlightAware Approximate
12:02AM 12.8311 -76.6173 167° South  Level FlightAware Approximate
12:03AM 12.7072 -76.5890 167° South  Level FlightAware Approximate
12:04AM 12.5833 -76.5609 167° South  Level FlightAware Approximate
12:05AM 12.4593 -76.5327 167° South  Level FlightAware Approximate
12:06AM 12.3354 -76.5046 167° South  Level FlightAware Approximate
12:07AM 12.2115 -76.4764 168° South  Level FlightAware Approximate
12:08AM 12.0876 -76.4484 168° South  Level FlightAware Approximate
12:09AM 11.9636 -76.4203 168° South  Level FlightAware Approximate
12:10AM 11.8397 -76.3923 168° South  Level FlightAware Approximate
12:11AM 11.7158 -76.3643 168° South  Level FlightAware Approximate
12:12AM 11.5918 -76.3363 168° South  Level FlightAware Approximate
12:13AM 11.4679 -76.3083 168° South  Level FlightAware Approximate
12:14AM 11.3440 -76.2804 168° South  Level FlightAware Approximate
12:15AM 11.2200 -76.2525 168° South  Level FlightAware Approximate
12:16AM 11.0961 -76.2246 168° South  Level FlightAware Approximate
12:17AM 10.9721 -76.1968 168° South  Level FlightAware Approximate
12:18AM 10.8482 -76.1689 168° South  Level FlightAware Approximate
12:19AM 10.7242 -76.1411 168° South  Level FlightAware Approximate
12:20AM 10.6002 -76.1133 168° South  Level FlightAware Approximate
12:21AM 10.4763 -76.0856 168° South  Level FlightAware Approximate
12:22AM 10.3523 -76.0578 168° South  Level FlightAware Approximate
12:23AM 10.2283 -76.0301 168° South  Level FlightAware Approximate
12:24AM 10.1044 -76.0024 168° South  Level FlightAware Approximate
12:25AM 9.9804 -75.9747 168° South  Level FlightAware Approximate
12:26AM 9.8564 -75.9471 168° South  Level FlightAware Approximate
12:27AM 9.7325 -75.9194 168° South  Level FlightAware Approximate
12:28AM 9.6085 -75.8918 168° South  Level FlightAware Approximate
12:29AM 9.4845 -75.8642 168° South  Level FlightAware Approximate
12:30AM 9.3605 -75.8366 168° South  Level FlightAware Approximate
12:31AM 9.2365 -75.8091 168° South  Level FlightAware Approximate
12:32AM 9.1125 -75.7815 168° South  Level FlightAware Approximate
12:33AM 8.9886 -75.7540 168° South  Level FlightAware Approximate
12:34AM 8.8646 -75.7265 168° South  Level FlightAware Approximate
12:35AM 8.7406 -75.6990 168° South  Level FlightAware Approximate
12:36AM 8.6166 -75.6716 168° South  Level FlightAware Approximate
12:37AM 8.4926 -75.6441 168° South  Level FlightAware Approximate
12:38AM 8.3686 -75.6167 168° South  Level FlightAware Approximate
12:39AM 8.2446 -75.5893 168° South  Level FlightAware Approximate
12:40AM 8.1206 -75.5619 168° South  Level FlightAware Approximate
12:41AM 7.9967 -75.5343 167° South  Level FlightAware Approximate
12:42AM 7.8727 -75.5065 167° South  Level FlightAware Approximate
12:43AM 7.7488 -75.4788 167° South  Level FlightAware Approximate
12:44AM 7.6249 -75.4511 167° South  Level FlightAware Approximate
12:45AM 7.5010 -75.4233 167° South  Level FlightAware Approximate
12:46AM 7.3770 -75.3956 168° South  Level FlightAware Approximate
12:47AM 7.2531 -75.3680 168° South  Level FlightAware Approximate
12:48AM 7.1292 -75.3403 168° South  Level FlightAware Approximate
12:49AM 7.0053 -75.3126 168° South  Level FlightAware Approximate
12:50AM 6.8813 -75.2850 168° South  Level FlightAware Approximate
12:51AM 6.7574 -75.2574 168° South  Level FlightAware Approximate
12:52AM 6.6335 -75.2298 168° South  Level FlightAware Approximate
12:53AM 6.5095 -75.2022 168° South  Level FlightAware Approximate
12:54AM 6.3856 -75.1746 168° South  Level FlightAware Approximate
12:55AM 6.2617 -75.1470 168° South  Level FlightAware Approximate
12:56AM 6.1377 -75.1195 168° South  Level FlightAware Approximate
12:57AM 6.0140 -75.0910 166° South  Level FlightAware Approximate
12:58AM 5.8895 -75.0663 170° South  Level FlightAware Approximate
12:59AM 5.7649 -75.0422 168° South  Level FlightAware Approximate
01:00AM 5.6410 -75.0144 166° South  Level FlightAware Approximate
01:01AM 5.5178 -74.9836 166° South  Level FlightAware Approximate
01:02AM 5.3939 -74.9560 168° South  Level FlightAware Approximate
01:03AM 5.2695 -74.9306 169° South  Level FlightAware Approximate
01:04AM 5.1721 -74.8679 120° Southeast  Level FlightAware Approximate
01:05AM 5.1073 -74.7583 122° Southeast  Level FlightAware Approximate
01:06AM 5.0405 -74.6500 120° Southeast  Level FlightAware Approximate
01:07AM 4.9761 -74.5403 127° Southeast  Level FlightAware Approximate
01:08AM 4.9148 -74.4305 124° Southeast  Level FlightAware Approximate
01:09AM 4.8426 -74.3260 135° Southeast  Level FlightAware Approximate
01:10AM 4.7698 -74.2264 127° Southeast  Level FlightAware Approximate
01:11AM 4.7016 -74.1469 127° Southeast  Level Estimated
01:12AM 4.7016 -74.1469 127° Southeast  Level Estimated
01:13AM 4.7016 -74.1469 127° Southeast  Level Estimated
01:14AM 4.7016 -74.1469 127° Southeast  Level Estimated
01:15AM 4.7016 -74.1469 127° Southeast  Level Estimated
01:16AM 4.7016 -74.1469 127° Southeast  Level Estimated
01:17AM 4.7016 -74.1469 127° Southeast  Level Estimated
01:18AM 4.7016 -74.1469 127° Southeast  Level Estimated
01:19AM 4.7016 -74.1469 127° Southeast  Level Estimated
01:20AM 4.7016 -74.1469 127° Southeast  Level Estimated
01:21AM 4.7016 -74.1469 127° Southeast  Level Estimated
01:22AM 4.7016 -74.1469 127° Southeast  Level Estimated
01:23AM 4.7016 -74.1469 127° Southeast  Level Estimated
01:24AM 4.7016 -74.1469 127° Southeast  Level Estimated
01:25AM 4.7016 -74.1469 127° Southeast  Level Estimated